createdAt,value
2018-07-22T00:00:02.666Z,62.70
2018-07-22T00:02:30.925Z,62.50
2018-07-22T00:04:59.235Z,62.50
2018-07-22T00:07:27.521Z,62.60
2018-07-22T00:09:55.773Z,62.50
2018-07-22T00:12:24.034Z,62.70
2018-07-22T00:14:52.290Z,62.70
2018-07-22T00:17:20.569Z,62.70
2018-07-22T00:19:48.854Z,62.90
2018-07-22T00:22:17.107Z,62.80
2018-07-22T00:24:45.405Z,62.70
2018-07-22T00:27:13.681Z,62.90
2018-07-22T00:29:41.957Z,62.90
2018-07-22T00:32:10.417Z,62.80
2018-07-22T00:34:38.690Z,62.70
2018-07-22T00:37:07.021Z,62.90
2018-07-22T00:39:35.316Z,62.90
2018-07-22T00:42:03.662Z,62.70
2018-07-22T00:44:31.957Z,62.70
2018-07-22T00:47:00.244Z,63.10
2018-07-22T00:49:28.477Z,63.00
2018-07-22T00:54:24.693Z,63.20
2018-07-22T00:56:52.961Z,62.90
2018-07-22T00:59:21.221Z,63.00
2018-07-22T01:01:49.440Z,63.80
2018-07-22T01:04:17.772Z,63.10
2018-07-22T01:06:46.025Z,63.00
2018-07-22T01:09:14.274Z,63.00
2018-07-22T01:11:42.487Z,63.10
2018-07-22T01:14:10.756Z,63.10
2018-07-22T01:16:39.028Z,63.20
2018-07-22T01:19:07.308Z,63.10
2018-07-22T01:21:35.547Z,63.20
2018-07-22T01:24:03.770Z,63.10
2018-07-22T01:26:32.084Z,63.00
2018-07-22T01:29:00.303Z,63.10
2018-07-22T01:31:28.552Z,63.10
2018-07-22T01:33:56.809Z,64.00
2018-07-22T01:36:25.124Z,63.20
2018-07-22T01:38:53.334Z,63.10
2018-07-22T01:41:21.602Z,63.10
2018-07-22T01:43:49.840Z,63.90
2018-07-22T01:46:18.114Z,63.00
2018-07-22T01:48:47.024Z,63.20
2018-07-22T01:51:15.265Z,63.20
2018-07-22T01:53:43.540Z,63.20
2018-07-22T01:56:11.781Z,63.20
2018-07-22T01:58:40.004Z,63.20
2018-07-22T02:01:08.262Z,63.20
2018-07-22T02:03:36.499Z,63.30
2018-07-22T02:06:04.776Z,63.20
2018-07-22T02:08:33.058Z,63.20
2018-07-22T02:11:01.289Z,63.20
2018-07-22T02:13:29.567Z,63.30
2018-07-22T02:15:57.824Z,63.20
2018-07-22T02:18:26.079Z,63.30
2018-07-22T02:20:54.343Z,63.20
2018-07-22T02:23:22.556Z,63.20
2018-07-22T02:25:50.819Z,63.60
2018-07-22T02:28:19.056Z,63.30
2018-07-22T02:30:47.328Z,63.40
2018-07-22T02:33:15.621Z,63.30
2018-07-22T02:35:43.867Z,63.50
2018-07-22T02:38:12.121Z,63.30
2018-07-22T02:40:40.397Z,63.30
2018-07-22T02:43:08.656Z,63.40
2018-07-22T02:45:36.976Z,63.30
2018-07-22T02:48:05.241Z,63.40
2018-07-22T02:50:33.530Z,63.40
2018-07-22T02:53:01.820Z,63.40
2018-07-22T02:55:30.105Z,63.20
2018-07-22T02:57:58.328Z,63.70
2018-07-22T03:00:26.610Z,63.40
2018-07-22T03:02:54.900Z,63.30
2018-07-22T03:05:23.153Z,63.40
2018-07-22T03:07:51.379Z,63.40
2018-07-22T03:10:19.644Z,63.30
2018-07-22T03:12:47.993Z,63.30
2018-07-22T03:15:16.469Z,63.30
2018-07-22T03:17:44.757Z,63.30
2018-07-22T03:22:40.989Z,63.40
2018-07-22T03:25:09.238Z,63.40
2018-07-22T03:27:37.497Z,63.40
2018-07-22T03:30:06.090Z,63.40
2018-07-22T03:32:34.327Z,63.30
2018-07-22T03:35:02.552Z,63.30
2018-07-22T03:37:30.781Z,63.30
2018-07-22T03:39:59.028Z,63.30
2018-07-22T03:42:27.256Z,63.30
2018-07-22T03:44:55.506Z,63.40
2018-07-22T03:47:23.812Z,63.30
2018-07-22T03:49:52.049Z,63.30
2018-07-22T03:52:20.348Z,63.30
2018-07-22T03:54:48.650Z,63.30
2018-07-22T03:57:16.964Z,63.40
2018-07-22T03:59:45.227Z,63.20
2018-07-22T04:02:13.473Z,63.40
2018-07-22T04:04:41.708Z,63.30
2018-07-22T04:07:09.979Z,63.40
2018-07-22T04:09:38.232Z,63.30
2018-07-22T04:12:06.465Z,63.40
2018-07-22T04:14:34.830Z,63.20
2018-07-22T04:17:03.099Z,64.20
2018-07-22T04:19:31.336Z,63.30
2018-07-22T04:21:59.559Z,63.20
2018-07-22T04:24:27.830Z,63.40
2018-07-22T04:26:56.104Z,63.30
2018-07-22T04:29:24.331Z,63.30
2018-07-22T04:31:52.560Z,63.20
2018-07-22T04:34:20.855Z,63.40
2018-07-22T04:36:49.076Z,63.20
2018-07-22T04:39:17.332Z,63.40
2018-07-22T04:44:13.546Z,63.30
2018-07-22T04:46:41.772Z,63.20
2018-07-22T04:49:10.049Z,63.10
2018-07-22T04:51:38.299Z,63.00
2018-07-22T04:54:06.578Z,63.00
2018-07-22T04:56:34.824Z,63.80
2018-07-22T04:59:03.091Z,63.20
2018-07-22T05:01:31.321Z,63.00
2018-07-22T05:03:59.578Z,62.80
2018-07-22T05:06:27.824Z,62.90
2018-07-22T05:08:56.091Z,62.80
2018-07-22T05:11:24.344Z,62.70
2018-07-22T05:13:52.627Z,62.60
2018-07-22T05:16:20.860Z,62.40
2018-07-22T05:18:49.136Z,62.50
2018-07-22T05:21:17.443Z,62.40
2018-07-22T05:23:45.677Z,62.30
2018-07-22T05:26:13.948Z,62.20
2018-07-22T05:28:42.191Z,62.70
2018-07-22T05:31:10.442Z,62.20
2018-07-22T05:33:38.687Z,62.20
2018-07-22T05:36:06.992Z,62.10
2018-07-22T05:41:03.266Z,62.20
2018-07-22T05:43:31.528Z,61.60
2018-07-22T05:45:59.768Z,62.00
2018-07-22T05:48:28.002Z,62.10
2018-07-22T05:50:56.265Z,62.10
2018-07-22T05:53:24.549Z,61.90
2018-07-22T05:55:52.792Z,61.90
2018-07-22T05:58:21.051Z,61.90
2018-07-22T06:00:49.292Z,62.10
2018-07-22T06:03:17.686Z,61.80
2018-07-22T06:05:45.801Z,61.70
2018-07-22T06:08:14.056Z,62.20
2018-07-22T06:10:42.292Z,62.90
2018-07-22T06:13:10.552Z,62.30
2018-07-22T06:15:38.896Z,66.70
2018-07-22T06:18:07.125Z,65.10
2018-07-22T06:20:35.409Z,69.00
2018-07-22T06:23:03.644Z,68.70
2018-07-22T06:25:31.917Z,63.80
2018-07-22T06:28:00.164Z,63.40
2018-07-22T06:30:28.394Z,63.90
2018-07-22T06:32:56.681Z,64.30
2018-07-22T06:35:24.937Z,68.80
2018-07-22T06:37:53.224Z,63.60
2018-07-22T06:40:21.465Z,63.20
2018-07-22T06:42:50.698Z,64.60
2018-07-22T06:45:18.916Z,69.20
2018-07-22T06:47:47.200Z,65.20
2018-07-22T06:50:15.469Z,65.40
2018-07-22T06:52:43.725Z,64.60
2018-07-22T06:55:11.960Z,68.40
2018-07-22T06:57:40.197Z,65.10
2018-07-22T07:00:09.524Z,68.00
2018-07-22T07:02:37.764Z,69.40
2018-07-22T07:05:06.533Z,63.90
2018-07-22T07:07:34.716Z,67.10
2018-07-22T07:10:03.064Z,64.00
2018-07-22T07:12:31.300Z,67.20
2018-07-22T07:14:59.524Z,64.50
2018-07-22T07:17:27.774Z,64.80
2018-07-22T07:19:56.130Z,63.00
2018-07-22T07:22:24.372Z,63.80
2018-07-22T07:24:52.700Z,63.00
2018-07-22T07:27:20.961Z,63.10
2018-07-22T07:29:49.664Z,63.00
2018-07-22T07:32:17.944Z,64.00
2018-07-22T07:34:46.204Z,62.70
2018-07-22T07:37:14.540Z,67.70
2018-07-22T07:39:42.973Z,65.20
2018-07-22T07:42:12.756Z,62.60
2018-07-22T07:44:49.751Z,62.20
2018-07-22T07:47:18.005Z,63.50
2018-07-22T07:49:49.584Z,64.90
2018-07-22T07:52:18.662Z,62.50
2018-07-22T07:54:47.987Z,64.30
2018-07-22T07:57:16.395Z,62.50
2018-07-22T07:59:48.576Z,62.20
2018-07-22T08:02:16.825Z,62.70
2018-07-22T08:04:57.199Z,63.90
2018-07-22T08:07:27.023Z,64.40
2018-07-22T08:09:55.327Z,63.40
2018-07-22T08:12:23.580Z,63.20
2018-07-22T08:14:51.826Z,62.80
2018-07-22T08:17:20.159Z,63.80
2018-07-22T08:19:48.436Z,63.40
2018-07-22T08:22:16.712Z,63.60
2018-07-22T08:24:44.949Z,64.00
2018-07-22T08:27:13.216Z,63.20
2018-07-22T08:29:41.460Z,62.50
2018-07-22T08:32:09.717Z,65.20
2018-07-22T08:34:37.973Z,62.30
2018-07-22T08:37:06.208Z,63.80
2018-07-22T08:39:34.507Z,62.00
2018-07-22T08:42:02.763Z,62.50
2018-07-22T08:44:31.044Z,62.40
2018-07-22T08:46:59.289Z,61.50
2018-07-22T08:49:27.516Z,62.80
2018-07-22T08:51:55.945Z,65.80
2018-07-22T08:54:24.316Z,61.80
2018-07-22T08:56:52.542Z,61.40
2018-07-22T08:59:20.908Z,63.40
2018-07-22T09:01:49.174Z,61.30
2018-07-22T09:04:17.460Z,62.60
2018-07-22T09:06:45.773Z,61.10
2018-07-22T09:09:14.015Z,63.30
2018-07-22T09:11:42.330Z,62.50
2018-07-22T09:14:10.857Z,62.90
2018-07-22T09:16:39.136Z,61.40
2018-07-22T09:19:07.443Z,63.50
2018-07-22T09:21:35.998Z,61.10
2018-07-22T09:24:04.291Z,62.20
2018-07-22T09:29:00.527Z,62.20
2018-07-22T09:31:28.884Z,61.10
2018-07-22T09:33:57.163Z,61.70
2018-07-22T09:36:25.443Z,60.90
2018-07-22T09:38:53.655Z,60.80
2018-07-22T09:41:21.948Z,60.40
2018-07-22T09:43:50.216Z,62.30
2018-07-22T09:46:18.480Z,60.60
2018-07-22T09:48:46.696Z,60.90
2018-07-22T09:51:14.940Z,61.00
2018-07-22T09:53:43.269Z,60.60
2018-07-22T09:56:11.496Z,60.70
2018-07-22T09:58:39.800Z,60.30
2018-07-22T10:01:08.049Z,61.10
2018-07-22T10:03:36.355Z,60.60
2018-07-22T10:06:04.632Z,60.10
2018-07-22T10:08:32.889Z,59.80
2018-07-22T10:11:01.161Z,59.70
2018-07-22T10:13:29.383Z,60.40
2018-07-22T10:15:57.706Z,59.40
2018-07-22T10:18:25.936Z,59.40
2018-07-22T10:20:54.225Z,59.40
2018-07-22T10:23:22.503Z,59.40
2018-07-22T10:25:50.739Z,59.70
2018-07-22T10:28:19.057Z,58.50
2018-07-22T10:30:47.337Z,58.80
2018-07-22T10:33:15.589Z,58.80
2018-07-22T10:35:43.903Z,58.70
2018-07-22T10:38:12.104Z,58.60
2018-07-22T10:40:40.368Z,58.80
2018-07-22T10:43:08.630Z,58.70
2018-07-22T10:45:37.230Z,58.60
2018-07-22T10:48:05.486Z,58.50
2018-07-22T10:50:33.777Z,58.10
2018-07-22T10:53:02.054Z,58.60
2018-07-22T10:55:30.316Z,58.40
2018-07-22T10:57:58.553Z,58.20
2018-07-22T11:00:26.808Z,58.50
2018-07-22T11:02:55.107Z,58.40
2018-07-22T11:05:23.349Z,58.30
2018-07-22T11:07:51.664Z,58.30
2018-07-22T11:10:19.937Z,58.30
2018-07-22T11:12:48.199Z,58.30
2018-07-22T11:15:16.462Z,58.40
2018-07-22T11:17:44.680Z,58.00
2018-07-22T11:20:12.931Z,58.40
2018-07-22T11:22:41.177Z,58.40
2018-07-22T11:25:09.441Z,58.40
2018-07-22T11:27:37.688Z,58.40
2018-07-22T11:30:05.968Z,58.70
2018-07-22T11:32:34.281Z,58.60
2018-07-22T11:35:02.581Z,58.60
2018-07-22T11:37:30.837Z,58.60
2018-07-22T11:39:59.667Z,58.30
2018-07-22T11:42:27.933Z,58.40
2018-07-22T11:44:56.191Z,58.50
2018-07-22T11:47:24.456Z,58.30
2018-07-22T11:49:52.740Z,58.20
2018-07-22T11:52:20.969Z,58.40
2018-07-22T11:54:49.265Z,58.00
2018-07-22T11:57:17.488Z,58.40
2018-07-22T11:59:45.730Z,58.30
2018-07-22T12:02:13.992Z,58.10
2018-07-22T12:04:42.310Z,58.20
2018-07-22T12:07:10.794Z,58.50
2018-07-22T12:09:39.120Z,58.90
2018-07-22T12:12:07.728Z,58.50
2018-07-22T12:14:35.956Z,58.90
2018-07-22T12:17:04.289Z,57.90
2018-07-22T12:19:32.600Z,58.10
2018-07-22T12:22:00.861Z,58.00
2018-07-22T12:24:29.150Z,58.20
2018-07-22T12:26:57.424Z,57.80
2018-07-22T12:29:25.662Z,57.80
2018-07-22T12:31:53.920Z,56.70
2018-07-22T12:34:22.302Z,56.70
2018-07-22T12:36:50.540Z,57.10
2018-07-22T12:39:18.853Z,56.40
2018-07-22T12:41:47.172Z,56.80
2018-07-22T12:44:15.438Z,56.60
2018-07-22T12:46:43.767Z,56.80
2018-07-22T12:51:40.042Z,55.90
2018-07-22T12:54:08.286Z,56.10
2018-07-22T12:56:36.526Z,56.40
2018-07-22T12:59:04.980Z,55.60
2018-07-22T13:01:33.689Z,54.40
2018-07-22T13:04:01.912Z,55.50
2018-07-22T13:06:30.172Z,56.40
2018-07-22T13:08:58.420Z,56.20
2018-07-22T13:11:26.688Z,55.70
2018-07-22T13:13:55.005Z,55.50
2018-07-22T13:16:23.325Z,55.60
2018-07-22T13:18:51.706Z,54.80
2018-07-22T13:21:19.893Z,55.60
2018-07-22T13:23:48.140Z,55.50
2018-07-22T13:26:16.441Z,55.60
2018-07-22T13:28:44.756Z,55.20
2018-07-22T13:31:13.045Z,55.40
2018-07-22T13:33:41.336Z,55.60
2018-07-22T13:36:09.576Z,55.00
2018-07-22T13:38:37.840Z,55.10
2018-07-22T13:41:06.156Z,55.30
2018-07-22T13:43:34.464Z,54.90
2018-07-22T13:46:02.700Z,54.90
2018-07-22T13:48:30.972Z,55.90
2018-07-22T13:50:59.233Z,55.20
2018-07-22T13:53:27.487Z,55.40
2018-07-22T13:55:55.748Z,56.00
2018-07-22T14:00:51.956Z,56.20
2018-07-22T14:03:20.212Z,56.50
2018-07-22T14:05:48.536Z,56.40
2018-07-22T14:08:16.772Z,56.50
2018-07-22T14:10:45.029Z,56.20
2018-07-22T14:13:13.272Z,56.50
2018-07-22T14:15:41.556Z,56.30
2018-07-22T14:18:09.782Z,55.30
2018-07-22T14:20:38.020Z,56.30
2018-07-22T14:23:06.269Z,56.50
2018-07-22T14:25:34.504Z,56.20
2018-07-22T14:28:02.818Z,56.00
2018-07-22T14:30:31.013Z,56.00
2018-07-22T14:32:59.253Z,56.60
2018-07-22T14:35:27.489Z,56.60
2018-07-22T14:37:55.733Z,56.00
2018-07-22T14:40:24.008Z,56.20
2018-07-22T14:42:52.266Z,55.60
2018-07-22T14:45:20.524Z,56.60
2018-07-22T14:47:48.805Z,56.70
2018-07-22T14:50:17.108Z,56.80
2018-07-22T14:52:45.352Z,56.80
2018-07-22T14:55:13.610Z,56.10
2018-07-22T14:57:41.884Z,56.50
2018-07-22T15:00:10.184Z,56.60
2018-07-22T15:02:38.488Z,56.30
2018-07-22T15:05:07.136Z,56.90
2018-07-22T15:07:35.517Z,56.70
2018-07-22T15:10:03.825Z,56.50
2018-07-22T15:12:32.063Z,57.10
2018-07-22T15:15:00.366Z,57.20
2018-07-22T15:17:28.619Z,57.30
2018-07-22T15:19:56.863Z,57.40
2018-07-22T15:22:25.153Z,57.30
2018-07-22T15:24:53.433Z,57.40
2018-07-22T15:27:21.703Z,57.50
2018-07-22T15:29:49.965Z,57.60
2018-07-22T15:32:18.229Z,57.60
2018-07-22T15:34:46.480Z,58.00
2018-07-22T15:37:14.781Z,58.50
2018-07-22T15:39:43.089Z,58.40
2018-07-22T15:42:11.336Z,58.40
2018-07-22T15:44:39.657Z,58.30
2018-07-22T15:47:07.896Z,58.30
2018-07-22T15:49:36.194Z,58.40
2018-07-22T15:52:04.440Z,58.30
2018-07-22T15:54:32.717Z,58.50
2018-07-22T15:57:00.992Z,58.50
2018-07-22T15:59:29.252Z,58.50
2018-07-22T16:01:57.501Z,58.60
2018-07-22T16:04:25.858Z,58.70
2018-07-22T16:06:54.112Z,58.80
2018-07-22T16:09:23.328Z,58.80
2018-07-22T16:11:51.601Z,58.90
2018-07-22T16:14:19.891Z,58.90
2018-07-22T16:16:48.161Z,59.00
2018-07-22T16:19:16.433Z,59.10
2018-07-22T16:21:44.705Z,59.10
2018-07-22T16:24:13.365Z,59.10
2018-07-22T16:26:41.645Z,59.20
2018-07-22T16:29:09.930Z,59.20
2018-07-22T16:31:38.168Z,59.70
2018-07-22T16:34:06.444Z,59.70
2018-07-22T16:36:34.693Z,59.50
2018-07-22T16:39:03.358Z,59.70
2018-07-22T16:41:31.652Z,59.90
2018-07-22T16:43:59.904Z,60.30
2018-07-22T16:46:28.149Z,60.90
2018-07-22T16:48:56.441Z,60.10
2018-07-22T16:51:24.725Z,60.20
2018-07-22T16:53:53.046Z,60.70
2018-07-22T16:56:21.271Z,60.30
2018-07-22T16:58:49.550Z,60.40
2018-07-22T17:01:17.855Z,61.00
2018-07-22T17:03:46.133Z,60.60
2018-07-22T17:06:14.387Z,60.70
2018-07-22T17:08:42.625Z,61.00
2018-07-22T17:11:10.917Z,60.80
2018-07-22T17:13:39.169Z,61.10
2018-07-22T17:16:07.444Z,61.00
2018-07-22T17:18:35.692Z,61.40
2018-07-22T17:21:03.953Z,61.50
2018-07-22T17:23:32.325Z,62.10
2018-07-22T17:26:00.576Z,61.40
2018-07-22T17:30:57.408Z,62.40
2018-07-22T17:33:25.705Z,61.70
2018-07-22T17:35:54.013Z,61.50
2018-07-22T17:40:50.315Z,61.30
2018-07-22T17:43:18.629Z,61.10
2018-07-22T17:45:46.913Z,61.30
2018-07-22T17:48:15.156Z,61.10
2018-07-22T17:50:43.428Z,61.30
2018-07-22T17:53:11.685Z,61.10
2018-07-22T17:55:39.948Z,60.90
2018-07-22T17:58:08.237Z,60.80
2018-07-22T18:00:36.509Z,60.70
2018-07-22T18:03:21.976Z,60.70
2018-07-22T18:05:50.577Z,60.70
2018-07-22T18:08:19.296Z,60.60
2018-07-22T18:10:47.888Z,60.60
2018-07-22T18:13:16.249Z,62.60
2018-07-22T18:15:44.534Z,61.80
2018-07-22T18:18:13.549Z,61.60
2018-07-22T18:20:42.341Z,61.00
2018-07-22T18:23:10.687Z,60.90
2018-07-22T18:25:38.980Z,60.70
2018-07-22T18:30:35.280Z,60.80
2018-07-22T18:33:03.627Z,61.60
2018-07-22T18:35:31.919Z,60.70
2018-07-22T18:38:00.177Z,60.60
2018-07-22T18:40:28.428Z,60.70
2018-07-22T18:42:56.972Z,60.70
2018-07-22T18:45:25.236Z,60.60
2018-07-22T18:47:53.917Z,61.00
2018-07-22T18:50:22.228Z,60.60
2018-07-22T18:52:50.484Z,60.60
2018-07-22T18:55:18.773Z,61.40
2018-07-22T18:57:47.036Z,60.70
2018-07-22T19:00:15.272Z,60.70
2018-07-22T19:02:43.532Z,60.70
2018-07-22T19:05:11.798Z,60.70
2018-07-22T19:10:08.460Z,60.60
2018-07-22T19:12:36.708Z,60.70
2018-07-22T19:15:05.223Z,60.70
2018-07-22T19:20:01.496Z,60.70
2018-07-22T19:22:29.804Z,60.80
2018-07-22T19:24:58.085Z,60.80
2018-07-22T19:27:26.354Z,60.90
2018-07-22T19:29:54.576Z,60.70
2018-07-22T19:32:22.856Z,60.80
2018-07-22T19:34:51.097Z,60.80
2018-07-22T19:37:19.346Z,60.80
2018-07-22T19:39:47.594Z,60.90
2018-07-22T19:42:15.871Z,60.90
2018-07-22T19:44:44.219Z,61.00
2018-07-22T19:47:12.484Z,61.00
2018-07-22T19:49:40.760Z,61.00
2018-07-22T19:52:09.021Z,61.10
2018-07-22T19:54:37.284Z,61.00
2018-07-22T19:57:05.582Z,61.00
2018-07-22T19:59:33.852Z,61.10
2018-07-22T20:02:02.081Z,61.10
2018-07-22T20:04:30.352Z,61.10
2018-07-22T20:06:58.671Z,61.10
2018-07-22T20:09:26.933Z,61.20
2018-07-22T20:11:55.202Z,61.20
2018-07-22T20:14:23.448Z,61.20
2018-07-22T20:16:51.717Z,61.30
2018-07-22T20:19:20.033Z,61.20
2018-07-22T20:21:48.288Z,61.30
2018-07-22T20:24:16.648Z,61.30
2018-07-22T20:26:44.803Z,61.40
2018-07-22T20:29:13.045Z,61.50
2018-07-22T20:31:41.333Z,61.50
2018-07-22T20:34:09.576Z,61.60
2018-07-22T20:36:37.876Z,61.50
2018-07-22T20:39:08.859Z,62.30
2018-07-22T20:41:37.352Z,61.50
2018-07-22T20:44:05.612Z,61.50
2018-07-22T20:46:33.857Z,61.50
2018-07-22T20:49:02.141Z,61.60
2018-07-22T20:51:30.412Z,61.40
2018-07-22T20:53:58.654Z,61.50
2018-07-22T20:56:27.040Z,61.50
2018-07-22T20:58:55.304Z,61.50
2018-07-22T21:01:23.580Z,62.30
2018-07-22T21:03:51.828Z,61.50
2018-07-22T21:06:20.068Z,61.60
2018-07-22T21:08:48.336Z,61.60
2018-07-22T21:11:16.789Z,62.40
2018-07-22T21:13:45.072Z,61.60
2018-07-22T21:16:13.307Z,61.60
2018-07-22T21:18:41.548Z,61.60
2018-07-22T21:21:09.808Z,61.60
2018-07-22T21:23:38.107Z,61.60
2018-07-22T21:26:06.352Z,61.60
2018-07-22T21:28:34.596Z,61.70
2018-07-22T21:31:02.826Z,61.60
2018-07-22T21:33:31.072Z,61.60
2018-07-22T21:35:59.340Z,61.60
2018-07-22T21:38:27.564Z,61.70
2018-07-22T21:40:55.804Z,61.70
2018-07-22T21:43:24.053Z,61.70
2018-07-22T21:45:52.295Z,62.70
2018-07-22T21:48:20.539Z,61.70
2018-07-22T21:50:48.774Z,61.80
2018-07-22T21:53:17.025Z,61.70
2018-07-22T21:55:45.678Z,61.70
2018-07-22T21:58:13.897Z,61.80
2018-07-22T22:00:43.358Z,61.80
2018-07-22T22:03:11.608Z,61.80
2018-07-22T22:05:39.894Z,61.80
2018-07-22T22:08:08.117Z,61.80
2018-07-22T22:10:36.398Z,61.80
2018-07-22T22:13:04.640Z,61.80
2018-07-22T22:15:33.143Z,61.80
2018-07-22T22:18:04.996Z,62.60
2018-07-22T22:20:33.588Z,61.80
2018-07-22T22:23:01.893Z,61.80
2018-07-22T22:25:30.185Z,61.80
2018-07-22T22:27:58.472Z,61.80
2018-07-22T22:30:26.745Z,61.80
2018-07-22T22:32:55.088Z,61.80
2018-07-22T22:35:23.320Z,61.80
2018-07-22T22:37:51.581Z,61.70
2018-07-22T22:40:19.852Z,61.80
2018-07-22T22:42:48.085Z,61.80
2018-07-22T22:45:16.520Z,61.80
2018-07-22T22:47:44.994Z,61.80
2018-07-22T22:50:13.276Z,61.90
2018-07-22T22:55:09.753Z,61.90
2018-07-22T22:57:38.076Z,61.80
2018-07-22T23:00:06.645Z,61.80
2018-07-22T23:02:36.028Z,61.90
2018-07-22T23:05:05.537Z,62.00
2018-07-22T23:07:33.812Z,61.90
2018-07-22T23:10:02.416Z,62.00
2018-07-22T23:12:30.774Z,61.90
2018-07-22T23:14:59.072Z,61.90
2018-07-22T23:17:27.380Z,62.00
2018-07-22T23:19:55.636Z,62.00
2018-07-22T23:22:23.891Z,62.00
2018-07-22T23:27:20.121Z,62.00
2018-07-22T23:29:48.410Z,62.00
2018-07-22T23:32:16.637Z,62.10
2018-07-22T23:34:44.876Z,62.10
2018-07-22T23:37:13.135Z,62.10
2018-07-22T23:39:41.347Z,62.10
2018-07-22T23:42:09.624Z,62.10
2018-07-22T23:44:37.895Z,62.10
2018-07-22T23:47:06.149Z,62.20
2018-07-22T23:49:34.413Z,62.10
2018-07-22T23:52:02.691Z,62.20
2018-07-22T23:54:30.946Z,62.20
2018-07-22T23:56:59.200Z,62.20
2018-07-22T23:59:27.452Z,62.20
